ADDS METAR Data INFO
IDs: Format: Raw Decoded Include TAF

Data at: 0635 UTC 15 Dec 2017

KOLF 150553Z AUTO 22003KT 10SM CLR M04/M07 A2998 RMK AO2 SLP177 T10441072 10000 21094 58028
KOLF 150453Z AUTO 26004KT 10SM CLR M07/M08 A3004 RMK AO2 SLP198 T10671083
KOLF 150353Z AUTO 27003KT 10SM CLR M09/M11 A3004 RMK AO2 SLP202 T10941106
KOLF 150253Z AUTO 23004KT 10SM CLR M07/M09 A3007 RMK AO2 SLP210 T10671094 58025
KOLF 150153Z AUTO 00000KT 10SM CLR M04/M07 A3010 RMK AO2 SLP217 T10391072
KOLF 150053Z AUTO 28007KT 10SM CLR M02/M07 A3012 RMK AO2 SLP224 T10171067
KOLF 142353Z AUTO 28008KT 10SM CLR 00/M06 A3014 RMK AO2 SLP231 T00001061 10056 21006 56014
KOLF 142253Z AUTO 28009KT 10SM CLR 03/M05 A3015 RMK AO2 SLP229 T00281050
KOLF 142153Z AUTO 28013KT 10SM CLR 04/M04 A3016 RMK AO2 SLP231 T00441044
KOLF 142053Z AUTO 28014KT 10SM FEW034 05/M04 A3019 RMK AO2 SLP245 T00501044 56025
KOLF 141953Z AUTO 28012KT 10SM FEW032 04/M04 A3021 RMK AO2 SLP250 T00391039
KOLF 141853Z AUTO 29012KT 10SM CLR 03/M03 A3023 RMK AO2 SLP257 T00331033
KOLF 141804Z AUTO 30015KT 10SM SCT022 03/M03 A3026 RMK AO2 T00281033
KOLF 141753Z AUTO 29013KT 10SM BKN022 03/M03 A3027 RMK AO2 SLP270 T00281033 10028 20017 50002
KOLF 141726Z AUTO 31015KT 10SM SCT024 03/M03 A3027 RMK AO2 T00281033
KOLF 141653Z AUTO 31012G20KT 10SM OVC024 03/M03 A3027 RMK AO2 SLP270 T00281033
KOLF 141553Z AUTO 30009KT 10SM OVC022 02/M03 A3027 RMK AO2 SLP272 T00221028
KOLF 141453Z AUTO 32008KT 10SM OVC022 02/M02 A3026 RMK AO2 SLP268 T00221022 51015
KOLF 141353Z AUTO 33010KT 10SM OVC023 02/M02 A3026 RMK AO2 SLP266 T00221022
KOLF 141253Z AUTO 30009KT 10SM OVC022 02/M02 A3023 RMK AO2 SLP257 T00221017
KOLF 141153Z AUTO 29009KT 10SM OVC020 02/M02 A3021 RMK AO2 RAB19E23UPB23E30 SLP250 P0000 60000 T00171017 10028 21017 51018
KOLF 141053Z AUTO 29012KT 10SM OVC023 02/M02 A3019 RMK AO2 SLP244 T00171022
KOLF 141011Z AUTO 29012KT 10SM BKN025 OVC047 02/M03 A3018 RMK AO2 T00171028
KOLF 140953Z AUTO 29011KT 10SM SCT025 OVC047 02/M03 A3018 RMK AO2 SLP238 T00171028
KOLF 140853Z AUTO 26006KT 10SM SCT045 M02/M04 A3016 RMK AO2 SLP234 T10171039 53020
KOLF 140753Z AUTO 30011KT 10SM SCT038 01/M03 A3012 RMK AO2 SLP221 T00061033
KOLF 140653Z AUTO 28006KT 10SM CLR 01/M03 A3011 RMK AO2 SLP216 T00111033 400561006
KOLF 140553Z AUTO 31011KT 10SM OVC100 03/M03 A3010 RMK AO2 SLP210 T00281028 10044 20022 53007
KOLF 140453Z AUTO 31014G19KT 10SM FEW065 OVC090 04/M03 A3009 RMK AO2 SLP208 T00441028
KOLF 140353Z AUTO 23007KT 10SM OVC075 02/M03 A3007 RMK AO2 SLP205 T00221033
KOLF 140253Z AUTO 28008KT 10SM BKN075 OVC120 03/M03 A3007 RMK AO2 SLP206 T00281033 58005
KOLF 140153Z AUTO 25008KT 10SM SCT065 BKN095 OVC110 03/M03 A3009 RMK AO2 SLP209 T00331028
KOLF 140053Z AUTO 27008KT 10SM OVC090 04/M03 A3009 RMK AO2 SLP211 T00391028
KOLF 132353Z AUTO 27007KT 10SM BKN080 OVC090 04/M03 A3009 RMK AO2 SLP209 T00441028 10056 20033 53003
KOLF 132253Z AUTO 29010KT 10SM OVC080 05/M03 A3009 RMK AO2 SLP208 T00501028
KOLF 132153Z AUTO 29014G18KT 10SM BKN080 OVC110 06/M02 A3008 RMK AO2 SLP206 T00561022
KOLF 132053Z AUTO 28010KT 10SM BKN065 05/M02 A3008 RMK AO2 SLP203 T00501022 58011
KOLF 131953Z AUTO 27011KT 10SM OVC070 04/M03 A3009 RMK AO2 SLP208 T00441028
KOLF 131853Z AUTO 24013KT 10SM OVC070 04/M03 A3011 RMK AO2 SLP212 T00391028